Shelbyville, Michigan
Current Conditions -  °F | °C
As of 1:32 AM on Monday 24 Nov 2014 (Local Time) from KGRR Reporting Station
Moderate Rain Moderate Rain  
Wind Chill: 48°   Ceiling: 1400
Heat Index: 48°   Visibility: 0.75mi
Dew Point: 47°   Wind: 3mph
Humidity: 96%   Direction: 80°E
Pressure: 29.06"   Gusts: NA
Location:  42.59°N, 85.64°W
Report Text: KGRR 240632Z AUTO 08003KT 3/4SM R26L/P6000FT RA BR SCT008 OVC014 09/08 A2906 RMK AO2 P0007 T00890083
Loading
Personal Weather Stations






























Interactive Weather Map New forecast layout! Learn more

10-Day Weather Forecast

Advertisements
Track Severe Weather on mobile